createdAt,value
2023-02-06T00:00:57.745Z,6.1
2023-02-06T00:01:57.727Z,7.4
2023-02-06T00:02:57.715Z,6.4
2023-02-06T00:03:57.705Z,6.9
2023-02-06T00:04:57.708Z,7.8
2023-02-06T00:05:57.831Z,5.7
2023-02-06T00:06:57.675Z,6.5
2023-02-06T00:07:57.664Z,6.0
2023-02-06T00:08:57.651Z,6.7
2023-02-06T00:09:57.639Z,6.3
2023-02-06T00:10:57.630Z,6.8
2023-02-06T00:11:57.620Z,6.5
2023-02-06T00:12:57.606Z,6.6
2023-02-06T00:13:57.622Z,6.0
2023-02-06T00:14:57.587Z,6.6
2023-02-06T00:15:57.595Z,5.9
2023-02-06T00:16:57.574Z,8.0
2023-02-06T00:17:57.552Z,7.5
2023-02-06T00:18:57.542Z,6.6
2023-02-06T00:19:57.531Z,6.3
2023-02-06T00:20:57.519Z,6.8
2023-02-06T00:21:57.512Z,6.6
2023-02-06T00:22:57.497Z,6.7
2023-02-06T00:23:57.485Z,7.1
2023-02-06T00:24:57.476Z,6.1
2023-02-06T00:25:57.466Z,6.9
2023-02-06T00:26:57.455Z,7.5
2023-02-06T00:27:57.457Z,6.3
2023-02-06T00:28:57.437Z,7.2
2023-02-06T00:29:57.451Z,7.6
2023-02-06T00:30:57.500Z,5.8
2023-02-06T00:31:57.400Z,7.2
2023-02-06T00:32:57.397Z,6.9
2023-02-06T00:33:57.379Z,6.60
2023-02-06T00:34:57.366Z,7.00
2023-02-06T00:35:57.358Z,6.60
2023-02-06T00:36:57.347Z,6.60
2023-02-06T00:37:57.336Z,6.60
2023-02-06T00:38:57.337Z,6.40
2023-02-06T00:39:57.315Z,5.70
2023-02-06T00:40:57.305Z,6.00
2023-02-06T00:41:57.291Z,6.40
2023-02-06T00:42:57.286Z,6.60
2023-02-06T00:43:57.273Z,6.0
2023-02-06T00:44:57.262Z,5.2
2023-02-06T00:45:57.280Z,7.6
2023-02-06T00:46:57.239Z,5.50
2023-02-06T00:47:57.226Z,5.70
2023-02-06T00:48:57.227Z,6.70
2023-02-06T00:49:57.205Z,6.40
2023-02-06T00:50:57.194Z,5.90
2023-02-06T00:51:57.191Z,5.90
2023-02-06T00:52:57.173Z,6.40
2023-02-06T00:53:57.160Z,6.70
2023-02-06T00:54:57.149Z,7.50
2023-02-06T00:55:57.143Z,5.40
2023-02-06T00:56:57.130Z,6.10
2023-02-06T00:57:57.117Z,5.90
2023-02-06T00:58:57.108Z,6.40
2023-02-06T00:59:57.099Z,5.90
2023-02-06T01:00:57.111Z,5.70
2023-02-06T01:01:57.179Z,6.70
2023-02-06T01:02:57.101Z,6.40
2023-02-06T01:03:57.057Z,5.60
2023-02-06T01:04:57.038Z,6.30
2023-02-06T01:05:57.024Z,5.10
2023-02-06T01:06:57.017Z,5.10
2023-02-06T01:07:57.015Z,6.60
2023-02-06T01:08:56.991Z,5.70
2023-02-06T01:09:56.979Z,5.50
2023-02-06T01:10:56.968Z,6.60
2023-02-06T01:11:56.959Z,5.70
2023-02-06T01:12:56.946Z,6.00
2023-02-06T01:13:56.937Z,5.10
2023-02-06T01:14:56.927Z,5.50
2023-02-06T01:15:56.953Z,6.10
2023-02-06T01:16:56.904Z,6.40
2023-02-06T01:17:56.936Z,5.80
2023-02-06T01:18:56.885Z,5.80
2023-02-06T01:19:56.866Z,6.00
2023-02-06T01:20:56.861Z,6.50
2023-02-06T01:21:56.844Z,5.90
2023-02-06T01:22:56.836Z,5.70
2023-02-06T01:23:56.829Z,6.70
2023-02-06T01:24:56.810Z,5.60
2023-02-06T01:25:56.800Z,5.70
2023-02-06T01:26:56.789Z,5.00
2023-02-06T01:27:56.801Z,5.90
2023-02-06T01:28:56.777Z,6.40
2023-02-06T01:29:56.752Z,5.80
2023-02-06T01:30:56.881Z,5.50
2023-02-06T01:31:56.739Z,5.30
2023-02-06T01:32:56.724Z,5.00
2023-02-06T01:33:56.785Z,5.50
2023-02-06T01:34:56.697Z,5.30
2023-02-06T01:35:56.686Z,5.30
2023-02-06T01:36:56.679Z,6.10
2023-02-06T01:37:56.679Z,5.10
2023-02-06T01:38:56.653Z,6.70
2023-02-06T01:39:56.643Z,5.70
2023-02-06T01:40:56.631Z,5.20
2023-02-06T01:41:56.618Z,5.60
2023-02-06T01:42:56.619Z,6.00
2023-02-06T01:43:56.597Z,5.20
2023-02-06T01:44:56.588Z,6.20
2023-02-06T01:45:56.580Z,6.20
2023-02-06T01:46:56.702Z,6.60
2023-02-06T01:47:56.556Z,6.20
2023-02-06T01:48:56.543Z,5.70
2023-02-06T01:49:56.647Z,5.50
2023-02-06T01:50:56.536Z,5.30
2023-02-06T01:51:56.508Z,6.60
2023-02-06T01:52:56.497Z,5.20
2023-02-06T01:53:56.489Z,5.80
2023-02-06T01:54:56.481Z,6.50
2023-02-06T01:55:56.464Z,5.70
2023-02-06T01:56:56.465Z,5.60
2023-02-06T01:57:56.450Z,5.40
2023-02-06T01:58:56.432Z,5.20
2023-02-06T01:59:56.419Z,6.00
2023-02-06T02:00:56.434Z,5.60
2023-02-06T02:01:56.427Z,6.70
2023-02-06T02:02:56.387Z,5.80
2023-02-06T02:03:56.380Z,5.40
2023-02-06T02:04:56.369Z,4.90
2023-02-06T02:05:56.451Z,5.90
2023-02-06T02:06:56.343Z,4.80
2023-02-06T02:07:56.331Z,5.80
2023-02-06T02:08:58.254Z,5.90
2023-02-06T02:09:56.314Z,6.40
2023-02-06T02:10:56.300Z,5.90
2023-02-06T02:11:56.291Z,6.00
2023-02-06T02:12:56.278Z,5.50
2023-02-06T02:13:56.269Z,5.80
2023-02-06T02:14:56.266Z,6.30
2023-02-06T02:15:56.266Z,5.40
2023-02-06T02:16:56.238Z,5.40
2023-02-06T02:17:56.231Z,5.90
2023-02-06T02:18:56.219Z,6.20
2023-02-06T02:19:56.203Z,6.10
2023-02-06T02:20:56.196Z,6.90
2023-02-06T02:21:56.220Z,5.70
2023-02-06T02:22:56.184Z,5.30
2023-02-06T02:23:56.160Z,5.70
2023-02-06T02:24:56.166Z,5.80
2023-02-06T02:25:56.144Z,5.90
2023-02-06T02:26:56.132Z,6.30
2023-02-06T02:27:56.201Z,5.70
2023-02-06T02:28:56.106Z,5.90
2023-02-06T02:29:56.096Z,6.20
2023-02-06T02:30:56.118Z,5.20
2023-02-06T02:31:56.074Z,6.10
2023-02-06T02:32:56.065Z,5.80
2023-02-06T02:33:56.074Z,6.30
2023-02-06T02:34:56.046Z,5.30
2023-02-06T02:35:56.032Z,6.10
2023-02-06T02:36:56.023Z,5.80
2023-02-06T02:37:56.036Z,6.00
2023-02-06T02:38:55.998Z,6.50
2023-02-06T02:39:55.984Z,5.70
2023-02-06T02:40:55.974Z,6.60
2023-02-06T02:41:55.965Z,6.50
2023-02-06T02:42:55.956Z,5.50
2023-02-06T02:43:55.943Z,5.00
2023-02-06T02:44:55.931Z,5.70
2023-02-06T02:45:55.978Z,6.70
2023-02-06T02:46:55.915Z,6.20
2023-02-06T02:47:55.894Z,5.70
2023-02-06T02:48:55.886Z,6.50
2023-02-06T02:49:55.874Z,5.60
2023-02-06T02:50:55.868Z,5.40
2023-02-06T02:51:55.849Z,5.90
2023-02-06T02:52:55.840Z,6.40
2023-02-06T02:53:55.905Z,6.60
2023-02-06T02:54:55.823Z,5.50
2023-02-06T02:55:55.809Z,5.90
2023-02-06T02:56:55.800Z,5.40
2023-02-06T02:57:55.789Z,7.00
2023-02-06T02:58:55.772Z,5.40
2023-02-06T02:59:55.760Z,5.70
2023-02-06T03:00:55.770Z,7.30
2023-02-06T03:01:55.747Z,5.90
2023-02-06T03:02:55.729Z,5.20
2023-02-06T03:03:55.720Z,5.50
2023-02-06T03:04:55.707Z,5.60
2023-02-06T03:05:55.693Z,5.90
2023-02-06T03:06:55.683Z,5.50
2023-02-06T03:07:55.670Z,5.20
2023-02-06T03:08:55.763Z,5.70
2023-02-06T03:09:55.668Z,5.40
2023-02-06T03:10:55.639Z,6.00
2023-02-06T03:11:55.675Z,5.70
2023-02-06T03:12:55.618Z,5.70
2023-02-06T03:13:55.604Z,7.00
2023-02-06T03:14:55.751Z,5.90
2023-02-06T03:15:55.597Z,5.80
2023-02-06T03:16:55.586Z,5.60
2023-02-06T03:17:55.559Z,6.40
2023-02-06T03:18:55.552Z,6.00
2023-02-06T03:19:55.537Z,5.80
2023-02-06T03:20:55.533Z,5.10
2023-02-06T03:21:55.516Z,5.40
2023-02-06T03:22:55.507Z,5.30
2023-02-06T03:23:55.495Z,5.40
2023-02-06T03:24:55.494Z,5.80
2023-02-06T03:25:55.500Z,5.20
2023-02-06T03:26:55.467Z,5.50
2023-02-06T03:27:55.557Z,5.80
2023-02-06T03:28:55.453Z,5.30
2023-02-06T03:29:55.436Z,6.30
2023-02-06T03:30:55.437Z,6.10
2023-02-06T03:31:55.506Z,7.00
2023-02-06T03:32:55.397Z,6.00
2023-02-06T03:33:55.386Z,5.40
2023-02-06T03:34:55.378Z,5.90
2023-02-06T03:35:55.385Z,6.10
2023-02-06T03:36:55.353Z,6.30
2023-02-06T03:37:55.342Z,5.60
2023-02-06T03:38:55.338Z,6.00
2023-02-06T03:39:55.321Z,6.20
2023-02-06T03:40:55.310Z,6.10
2023-02-06T03:41:55.322Z,5.90
2023-02-06T03:42:55.292Z,6.40
2023-02-06T03:43:55.434Z,5.20
2023-02-06T03:44:55.265Z,5.70
2023-02-06T03:45:55.330Z,5.40
2023-02-06T03:46:55.242Z,5.80
2023-02-06T03:47:55.234Z,5.80
2023-02-06T03:48:55.222Z,5.90
2023-02-06T03:49:55.210Z,6.50
2023-02-06T03:50:55.200Z,6.60
2023-02-06T03:51:55.191Z,7.10
2023-02-06T03:52:55.180Z,6.80
2023-02-06T03:53:55.170Z,8.10
2023-02-06T03:54:55.165Z,9.70
2023-02-06T03:55:55.146Z,9.20
2023-02-06T03:56:55.139Z,9.00
2023-02-06T03:57:55.153Z,8.10
2023-02-06T03:58:55.120Z,8.30
2023-02-06T03:59:55.106Z,8.40
2023-02-06T04:00:55.320Z,8.70
2023-02-06T04:01:55.100Z,8.00
2023-02-06T04:02:55.073Z,7.80
2023-02-06T04:03:55.063Z,7.20
2023-02-06T04:04:55.049Z,7.10
2023-02-06T04:05:55.039Z,7.50
2023-02-06T04:06:55.028Z,6.50
2023-02-06T04:07:55.016Z,5.90
2023-02-06T04:08:55.007Z,5.50
2023-02-06T04:09:54.999Z,6.70
2023-02-06T04:10:54.984Z,7.30
2023-02-06T04:11:54.976Z,7.50
2023-02-06T04:12:54.960Z,7.00
2023-02-06T04:13:54.976Z,6.60
2023-02-06T04:14:54.940Z,6.60
2023-02-06T04:15:54.928Z,6.20
2023-02-06T04:16:54.918Z,6.80
2023-02-06T04:18:00.437Z,7.70
2023-02-06T04:18:55.925Z,6.50
2023-02-06T04:19:54.886Z,6.90
2023-02-06T04:20:54.882Z,9.00
2023-02-06T04:21:54.861Z,8.20
2023-02-06T04:22:54.856Z,9.1
2023-02-06T04:23:54.842Z,7.7
2023-02-06T04:24:54.832Z,12.9
2023-02-06T04:25:54.820Z,12.0
2023-02-06T04:26:54.818Z,12.0
2023-02-06T04:27:54.820Z,12.0
2023-02-06T04:28:54.821Z,13.2
2023-02-06T04:29:54.819Z,11.1
2023-02-06T04:30:54.845Z,14.0
2023-02-06T04:31:54.756Z,12.2
2023-02-06T04:32:54.747Z,12.4
2023-02-06T04:33:54.728Z,11.2
2023-02-06T04:34:54.722Z,13.4
2023-02-06T04:35:54.729Z,14.0
2023-02-06T04:36:54.697Z,13.5
2023-02-06T04:37:54.684Z,13.6
2023-02-06T04:38:54.674Z,14.3
2023-02-06T04:39:54.665Z,16.5
2023-02-06T04:40:54.656Z,11.6
2023-02-06T04:41:54.654Z,12.8
2023-02-06T04:42:54.628Z,12.2
2023-02-06T04:43:54.643Z,14.0
2023-02-06T04:44:54.606Z,14.6
2023-02-06T04:45:54.683Z,16.1
2023-02-06T04:46:54.592Z,14.5
2023-02-06T04:47:54.569Z,16.4
2023-02-06T04:48:54.558Z,14.6
2023-02-06T04:49:54.548Z,17.4
2023-02-06T04:50:54.535Z,15.1
2023-02-06T04:51:54.526Z,12.7
2023-02-06T04:52:54.511Z,13.9
2023-02-06T04:53:54.506Z,12.1
2023-02-06T04:54:54.490Z,11.7
2023-02-06T04:55:54.482Z,12.4
2023-02-06T04:56:54.467Z,19.1
2023-02-06T04:57:54.465Z,16.5
2023-02-06T04:58:54.448Z,15.1
2023-02-06T04:59:54.453Z,15.8
2023-02-06T05:00:54.429Z,14.9
2023-02-06T05:01:54.489Z,14.7
2023-02-06T05:02:54.498Z,15.5
2023-02-06T05:03:54.391Z,22.0
2023-02-06T05:04:54.377Z,13.9
2023-02-06T05:05:54.368Z,14.7
2023-02-06T05:06:54.360Z,16.5
2023-02-06T05:07:54.364Z,19.3
2023-02-06T05:08:54.342Z,14.0
2023-02-06T05:09:54.388Z,19.6
2023-02-06T05:10:54.419Z,18.4
2023-02-06T05:11:54.518Z,13.4
2023-02-06T05:12:54.399Z,13.6
2023-02-06T05:13:54.454Z,16.5
2023-02-06T05:14:54.594Z,18.3
2023-02-06T05:15:54.286Z,17.5
2023-02-06T05:16:54.246Z,16.0
2023-02-06T05:17:54.259Z,13.0
2023-02-06T05:18:54.399Z,11.2
2023-02-06T05:19:54.208Z,11.8
2023-02-06T05:20:54.194Z,14.2
2023-02-06T05:21:54.192Z,17.7
2023-02-06T05:22:54.170Z,18.6
2023-02-06T05:23:54.169Z,17.3
2023-02-06T05:24:54.150Z,17.7
2023-02-06T05:25:54.142Z,15.1
2023-02-06T05:26:54.128Z,18.8
2023-02-06T05:27:54.170Z,16.9
2023-02-06T05:28:54.105Z,15.9
2023-02-06T05:29:54.099Z,13.8
2023-02-06T05:30:54.190Z,16.9
2023-02-06T05:31:54.134Z,19.3
2023-02-06T05:32:54.059Z,14.8
2023-02-06T05:33:54.082Z,20.2
2023-02-06T05:34:54.047Z,13.7
2023-02-06T05:35:54.030Z,16.8
2023-02-06T05:36:54.018Z,17.3
2023-02-06T05:37:54.018Z,15.8
2023-02-06T05:38:53.995Z,20.4
2023-02-06T05:39:53.984Z,19.9
2023-02-06T05:40:53.977Z,21.5
2023-02-06T05:41:53.966Z,19.9
2023-02-06T05:42:53.955Z,21.7
2023-02-06T05:43:53.948Z,23.5
2023-02-06T05:44:53.927Z,22.6
2023-02-06T05:45:53.927Z,22.2
2023-02-06T05:46:53.909Z,18.5
2023-02-06T05:47:53.899Z,19.7
2023-02-06T05:48:53.886Z,18.7
2023-02-06T05:49:53.898Z,18.3
2023-02-06T05:50:53.932Z,16.8
2023-02-06T05:51:53.856Z,13.9
2023-02-06T05:52:53.847Z,16.7
2023-02-06T05:53:53.887Z,15.3
2023-02-06T05:54:53.925Z,13.6
2023-02-06T05:55:53.810Z,14.40
2023-02-06T05:56:53.794Z,17.90
2023-02-06T05:57:53.793Z,18.50
2023-02-06T05:58:53.932Z,23.20
2023-02-06T05:59:53.822Z,22.90
2023-02-06T06:00:53.758Z,24.00
2023-02-06T06:01:53.898Z,23.60
2023-02-06T06:02:53.834Z,24.20
2023-02-06T06:03:53.959Z,29.70
2023-02-06T06:04:53.781Z,21.40
2023-02-06T06:05:53.726Z,24.50
2023-02-06T06:06:53.703Z,20.10
2023-02-06T06:07:53.682Z,20.80
2023-02-06T06:08:53.673Z,25.00
2023-02-06T06:09:53.658Z,22.80
2023-02-06T06:10:53.651Z,22.60
2023-02-06T06:11:53.638Z,20.60
2023-02-06T06:12:53.627Z,24.50
2023-02-06T06:13:53.615Z,30.80
2023-02-06T06:14:53.602Z,22.80
2023-02-06T06:15:53.619Z,19.00
2023-02-06T06:16:53.586Z,23.20
2023-02-06T06:17:53.579Z,20.60
2023-02-06T06:18:53.563Z,22.20
2023-02-06T06:19:53.556Z,25.30
2023-02-06T06:20:53.562Z,22.70
2023-02-06T06:21:53.549Z,24.60
2023-02-06T06:22:53.517Z,20.70
2023-02-06T06:23:53.508Z,21.80
2023-02-06T06:24:53.506Z,25.20
2023-02-06T06:25:53.506Z,25.30
2023-02-06T06:26:53.512Z,26.10
2023-02-06T06:27:53.476Z,23.40
2023-02-06T06:28:53.454Z,19.90
2023-02-06T06:29:53.451Z,19.20
2023-02-06T06:30:53.457Z,18.00
2023-02-06T06:31:53.447Z,16.10
2023-02-06T06:32:53.402Z,18.80
2023-02-06T06:33:53.395Z,14.80
2023-02-06T06:34:53.401Z,15.00
2023-02-06T06:35:53.376Z,14.20
2023-02-06T06:36:53.361Z,14.00
2023-02-06T06:37:53.379Z,14.80
2023-02-06T06:38:53.338Z,16.70
2023-02-06T06:39:53.330Z,19.50
2023-02-06T06:40:53.316Z,18.30
2023-02-06T06:41:53.317Z,15.70
2023-02-06T06:42:53.291Z,16.40
2023-02-06T06:43:53.287Z,15.70
2023-02-06T06:44:53.270Z,15.90
2023-02-06T06:45:53.321Z,19.10
2023-02-06T06:46:53.247Z,18.00
2023-02-06T06:47:53.351Z,17.70
2023-02-06T06:48:53.232Z,16.70
2023-02-06T06:49:53.226Z,17.40
2023-02-06T06:50:53.205Z,18.90
2023-02-06T06:51:53.194Z,18.40
2023-02-06T06:52:53.195Z,17.80
2023-02-06T06:53:53.250Z,16.10
2023-02-06T06:54:53.206Z,15.90
2023-02-06T06:55:53.152Z,16.50
2023-02-06T06:56:53.138Z,16.50
2023-02-06T06:57:53.130Z,18.30
2023-02-06T06:58:53.114Z,16.50
2023-02-06T06:59:53.110Z,19.50
2023-02-06T07:00:53.115Z,18.70
2023-02-06T07:01:53.083Z,19.30
2023-02-06T07:02:53.114Z,19.90
2023-02-06T07:03:53.063Z,21.50
2023-02-06T07:04:53.050Z,20.30
2023-02-06T07:05:53.422Z,23.30
2023-02-06T07:06:53.027Z,12.00
2023-02-06T07:07:53.018Z,11.60
2023-02-06T07:08:53.008Z,12.60
2023-02-06T07:09:53.083Z,12.50
2023-02-06T07:10:52.983Z,14.40
2023-02-06T07:11:52.975Z,17.90
2023-02-06T07:12:52.964Z,17.50
2023-02-06T07:13:52.950Z,17.00
2023-02-06T07:14:52.938Z,17.50
2023-02-06T07:15:52.930Z,16.70
2023-02-06T07:16:52.938Z,18.50
2023-02-06T07:17:52.907Z,20.20
2023-02-06T07:18:52.921Z,21.90
2023-02-06T07:19:52.887Z,20.10
2023-02-06T07:20:52.871Z,19.90
2023-02-06T07:21:52.865Z,21.40
2023-02-06T07:22:52.851Z,18.70
2023-02-06T07:23:52.840Z,18.20
2023-02-06T07:24:54.425Z,18.90
2023-02-06T07:25:52.843Z,17.40
2023-02-06T07:26:52.809Z,17.70
2023-02-06T07:27:52.868Z,16.90
2023-02-06T07:28:52.854Z,17.10
2023-02-06T07:29:52.777Z,15.70
2023-02-06T07:30:52.827Z,16.30
2023-02-06T07:31:52.843Z,17.10
2023-02-06T07:32:52.743Z,17.60
2023-02-06T07:33:52.730Z,20.00
2023-02-06T07:34:52.723Z,19.90
2023-02-06T07:35:52.707Z,20.40
2023-02-06T07:36:52.698Z,19.70
2023-02-06T07:37:52.685Z,19.30
2023-02-06T07:38:52.674Z,22.40
2023-02-06T07:39:52.660Z,22.70
2023-02-06T07:40:52.651Z,22.30
2023-02-06T07:41:52.724Z,22.50
2023-02-06T07:42:52.635Z,22.30
2023-02-06T07:43:52.626Z,21.00
2023-02-06T07:44:52.755Z,20.80
2023-02-06T07:45:52.617Z,21.90
2023-02-06T07:46:52.595Z,22.40
2023-02-06T07:47:52.576Z,20.80
2023-02-06T07:48:52.565Z,23.80
2023-02-06T07:49:52.558Z,22.80
2023-02-06T07:50:52.547Z,21.40
2023-02-06T07:51:52.544Z,24.40
2023-02-06T07:52:52.538Z,22.30
2023-02-06T07:53:52.508Z,21.50
2023-02-06T07:54:52.506Z,21.70
2023-02-06T07:55:52.488Z,23.40
2023-02-06T07:56:52.473Z,20.80
2023-02-06T07:57:52.484Z,22.20
2023-02-06T07:58:52.455Z,24.20
2023-02-06T07:59:52.444Z,21.40
2023-02-06T08:00:52.450Z,22.00
2023-02-06T08:01:52.428Z,20.90
2023-02-06T08:02:52.410Z,21.60
2023-02-06T08:03:52.406Z,22.40
2023-02-06T08:04:52.391Z,22.30
2023-02-06T08:05:52.380Z,22.40
2023-02-06T08:06:52.364Z,21.80
2023-02-06T08:07:52.355Z,21.80
2023-02-06T08:08:52.344Z,22.80
2023-02-06T08:09:52.332Z,22.30
2023-02-06T08:10:52.319Z,20.50
2023-02-06T08:11:52.307Z,20.70
2023-02-06T08:12:52.296Z,20.40
2023-02-06T08:13:52.315Z,21.50
2023-02-06T08:14:52.274Z,22.60
2023-02-06T08:15:52.298Z,22.10
2023-02-06T08:16:52.314Z,22.90
2023-02-06T08:17:52.246Z,21.50
2023-02-06T08:18:52.240Z,24.10
2023-02-06T08:19:52.221Z,22.70
2023-02-06T08:20:52.206Z,24.10
2023-02-06T08:21:52.196Z,22.70
2023-02-06T08:22:52.186Z,22.50
2023-02-06T08:23:52.174Z,20.60
2023-02-06T08:24:52.164Z,23.00
2023-02-06T08:25:52.150Z,20.70
2023-02-06T08:26:52.177Z,20.90
2023-02-06T08:27:52.177Z,19.30
2023-02-06T08:28:52.116Z,19.60
2023-02-06T08:29:52.133Z,20.60
2023-02-06T08:30:52.199Z,20.40
2023-02-06T08:31:52.209Z,20.80
2023-02-06T08:32:52.074Z,18.80
2023-02-06T08:33:52.066Z,18.50
2023-02-06T08:34:52.058Z,18.40
2023-02-06T08:35:52.043Z,17.50
2023-02-06T08:36:52.035Z,18.40
2023-02-06T08:37:52.016Z,19.40
2023-02-06T08:38:52.004Z,20.10
2023-02-06T08:39:51.999Z,18.60
2023-02-06T08:40:51.981Z,19.20
2023-02-06T08:41:51.971Z,17.30
2023-02-06T08:42:51.973Z,19.60
2023-02-06T08:43:51.951Z,18.80
2023-02-06T08:44:51.948Z,18.20
2023-02-06T08:45:51.976Z,19.20
2023-02-06T08:46:58.794Z,18.70
2023-02-06T08:47:52.936Z,19.80
2023-02-06T08:48:51.897Z,19.60
2023-02-06T08:49:51.883Z,20.10
2023-02-06T08:50:51.877Z,21.20
2023-02-06T08:51:51.905Z,20.30
2023-02-06T08:52:51.892Z,24.70
2023-02-06T08:53:51.861Z,24.70
2023-02-06T08:54:51.858Z,24.50
2023-02-06T08:55:51.847Z,26.70
2023-02-06T08:56:51.810Z,23.50
2023-02-06T08:57:51.796Z,24.70
2023-02-06T08:58:51.783Z,25.40
2023-02-06T08:59:51.772Z,25.30
2023-02-06T09:00:51.763Z,24.00
2023-02-06T09:01:51.838Z,26.90
2023-02-06T09:02:51.834Z,27.10
2023-02-06T09:03:51.727Z,28.60
2023-02-06T09:04:51.852Z,28.10
2023-02-06T09:05:54.052Z,25.40
2023-02-06T09:06:51.690Z,26.30
2023-02-06T09:07:51.686Z,28.20
2023-02-06T09:08:51.670Z,26.80
2023-02-06T09:09:51.660Z,25.30
2023-02-06T09:10:51.647Z,29.00
2023-02-06T09:11:51.635Z,29.40
2023-02-06T09:12:51.631Z,28.60
2023-02-06T09:13:51.617Z,26.60
2023-02-06T09:14:51.614Z,25.60
2023-02-06T09:15:51.626Z,25.60
2023-02-06T09:16:51.585Z,25.80
2023-02-06T09:17:51.595Z,25.40
2023-02-06T09:18:53.926Z,26.20
2023-02-06T09:19:51.559Z,27.80
2023-02-06T09:20:51.539Z,26.00
2023-02-06T09:21:51.523Z,25.90
2023-02-06T09:22:51.509Z,25.20
2023-02-06T09:23:51.498Z,26.50
2023-02-06T09:24:51.486Z,27.00
2023-02-06T09:25:51.475Z,26.50
2023-02-06T09:26:59.957Z,27.90
2023-02-06T09:27:52.505Z,29.60
2023-02-06T09:28:51.441Z,29.30
2023-02-06T09:29:51.433Z,30.50
2023-02-06T09:30:51.551Z,31.20
2023-02-06T09:31:51.412Z,30.20
2023-02-06T09:32:51.398Z,30.60
2023-02-06T09:33:51.412Z,35.90
2023-02-06T09:34:51.376Z,31.60
2023-02-06T09:35:51.361Z,28.90
2023-02-06T09:36:51.352Z,30.40
2023-02-06T09:37:51.344Z,24.20
2023-02-06T09:38:51.334Z,27.30
2023-02-06T09:39:51.320Z,25.30
2023-02-06T09:40:51.307Z,29.40
2023-02-06T09:41:51.296Z,24.50
2023-02-06T09:42:51.283Z,23.30
2023-02-06T09:43:51.280Z,25.40
2023-02-06T09:44:51.284Z,26.50
2023-02-06T09:45:51.249Z,24.10
2023-02-06T09:46:51.249Z,28.90
2023-02-06T09:47:51.228Z,27.40
2023-02-06T09:48:51.222Z,28.30
2023-02-06T09:49:51.253Z,25.30
2023-02-06T09:50:51.195Z,27.30
2023-02-06T09:51:51.184Z,28.50
2023-02-06T09:52:51.177Z,26.60
2023-02-06T09:53:51.161Z,25.90
2023-02-06T09:54:51.155Z,27.50
2023-02-06T09:55:51.137Z,29.60
2023-02-06T09:56:51.133Z,29.40
2023-02-06T09:57:51.130Z,30.70
2023-02-06T09:58:51.130Z,31.80
2023-02-06T09:59:51.094Z,28.80
2023-02-06T10:00:51.089Z,33.10
2023-02-06T10:01:51.103Z,29.10
2023-02-06T10:02:51.066Z,32.80
2023-02-06T10:03:51.117Z,31.90
2023-02-06T10:04:51.040Z,33.10
2023-02-06T10:05:51.050Z,32.90
2023-02-06T10:06:51.026Z,31.30
2023-02-06T10:07:51.037Z,33.20
2023-02-06T10:08:51.004Z,36.90
2023-02-06T10:09:50.997Z,35.10
2023-02-06T10:10:50.973Z,35.10
2023-02-06T10:11:50.961Z,38.70
2023-02-06T10:12:50.952Z,36.00
2023-02-06T10:13:50.981Z,35.50
2023-02-06T10:14:50.926Z,35.80
2023-02-06T10:15:50.993Z,34.40
2023-02-06T10:16:50.909Z,38.30
2023-02-06T10:17:50.893Z,39.00
2023-02-06T10:18:50.893Z,35.50
2023-02-06T10:19:50.870Z,36.70
2023-02-06T10:20:50.861Z,37.30
2023-02-06T10:21:51.002Z,39.80
2023-02-06T10:22:50.844Z,30.10
2023-02-06T10:23:50.845Z,32.90
2023-02-06T10:24:50.814Z,35.70
2023-02-06T10:25:50.803Z,31.90
2023-02-06T10:26:50.793Z,37.30
2023-02-06T10:27:50.821Z,32.70
2023-02-06T10:28:50.778Z,34.00
2023-02-06T10:29:50.760Z,37.30
2023-02-06T10:30:50.774Z,34.60
2023-02-06T10:31:50.771Z,32.80
2023-02-06T10:32:50.730Z,34.40
2023-02-06T10:33:50.722Z,30.50
2023-02-06T10:34:50.709Z,29.50
2023-02-06T10:35:50.699Z,29.70
2023-02-06T10:36:50.685Z,28.40
2023-02-06T10:37:50.698Z,28.70
2023-02-06T10:38:50.676Z,29.40
2023-02-06T10:39:50.651Z,33.50
2023-02-06T10:40:50.648Z,35.90
2023-02-06T10:41:50.633Z,29.60
2023-02-06T10:42:50.639Z,46.40
2023-02-06T10:43:50.608Z,30.30
2023-02-06T10:44:51.561Z,22.40
2023-02-06T10:45:50.737Z,24.50
2023-02-06T10:46:50.668Z,23.90
2023-02-06T10:47:50.565Z,24.70
2023-02-06T10:48:51.664Z,24.30
2023-02-06T10:49:50.582Z,24.60
2023-02-06T10:50:50.533Z,29.80
2023-02-06T10:51:50.528Z,23.20
2023-02-06T10:52:50.514Z,24.00
2023-02-06T10:53:50.552Z,20.60
2023-02-06T10:54:50.490Z,23.60
2023-02-06T10:55:51.003Z,22.50
2023-02-06T10:56:50.478Z,22.60
2023-02-06T10:57:50.455Z,22.10
2023-02-06T10:58:50.443Z,20.80
2023-02-06T10:59:52.625Z,18.40
2023-02-06T11:00:50.496Z,23.20
2023-02-06T11:01:50.459Z,19.90
2023-02-06T11:03:01.307Z,20.10
2023-02-06T11:03:51.416Z,18.70
2023-02-06T11:04:50.376Z,18.10
2023-02-06T11:05:50.366Z,18.40
2023-02-06T11:06:50.358Z,20.40
2023-02-06T11:07:50.338Z,19.50
2023-02-06T11:08:50.340Z,17.60
2023-02-06T11:09:50.364Z,16.80
2023-02-06T11:10:50.336Z,18.20
2023-02-06T11:11:50.296Z,19.30
2023-02-06T11:12:50.302Z,19.30
2023-02-06T11:13:50.280Z,18.30
2023-02-06T11:14:50.264Z,17.80
2023-02-06T11:15:50.254Z,18.80
2023-02-06T11:16:50.241Z,15.80
2023-02-06T11:17:50.230Z,16.60
2023-02-06T11:18:50.229Z,19.40
2023-02-06T11:19:50.213Z,16.70
2023-02-06T11:20:50.196Z,18.10
2023-02-06T11:21:50.183Z,15.30
2023-02-06T11:22:53.063Z,18.20
2023-02-06T11:23:50.160Z,17.00
2023-02-06T11:24:50.151Z,16.70
2023-02-06T11:25:50.165Z,17.00
2023-02-06T11:26:50.128Z,17.60
2023-02-06T11:27:50.155Z,17.80
2023-02-06T11:28:50.116Z,16.40
2023-02-06T11:29:52.093Z,17.00
2023-02-06T11:30:50.110Z,16.40
2023-02-06T11:31:50.114Z,17.60
2023-02-06T11:33:03.641Z,16.80
2023-02-06T11:33:51.078Z,15.40
2023-02-06T11:34:50.037Z,17.20
2023-02-06T11:35:50.030Z,14.80
2023-02-06T11:36:50.017Z,14.90
2023-02-06T11:37:50.012Z,14.70
2023-02-06T11:38:49.993Z,14.00
2023-02-06T11:39:49.980Z,14.30
2023-02-06T11:40:50.148Z,15.70
2023-02-06T11:41:50.007Z,14.50
2023-02-06T11:42:49.948Z,14.20
2023-02-06T11:43:49.932Z,14.20
2023-02-06T11:44:49.925Z,13.10
2023-02-06T11:45:49.958Z,14.90
2023-02-06T11:46:49.901Z,13.70
2023-02-06T11:47:49.890Z,13.40
2023-02-06T11:48:49.877Z,14.60
2023-02-06T11:49:49.868Z,17.50
2023-02-06T11:50:49.958Z,14.90
2023-02-06T11:51:49.850Z,20.00
2023-02-06T11:52:49.835Z,19.40
2023-02-06T11:53:49.822Z,17.20
2023-02-06T11:54:49.814Z,15.80
2023-02-06T11:55:49.800Z,16.10
2023-02-06T11:56:49.810Z,18.30
2023-02-06T11:57:49.799Z,16.30
2023-02-06T11:58:49.774Z,14.40
2023-02-06T11:59:49.755Z,15.00
2023-02-06T12:00:49.747Z,15.40
2023-02-06T12:01:49.738Z,14.20
2023-02-06T12:02:49.727Z,14.10
2023-02-06T12:03:49.711Z,15.30
2023-02-06T12:04:49.726Z,14.70
2023-02-06T12:05:49.699Z,14.50
2023-02-06T12:06:49.681Z,13.80
2023-02-06T12:07:49.670Z,13.80
2023-02-06T12:08:49.660Z,13.20
2023-02-06T12:09:49.650Z,13.40
2023-02-06T12:10:49.635Z,12.20
2023-02-06T12:11:49.625Z,12.80
2023-02-06T12:12:49.629Z,11.30
2023-02-06T12:13:49.631Z,12.90
2023-02-06T12:14:49.590Z,13.20
2023-02-06T12:15:50.096Z,13.90
2023-02-06T12:16:49.637Z,12.60
2023-02-06T12:17:49.561Z,13.90
2023-02-06T12:18:49.552Z,12.10
2023-02-06T12:19:49.541Z,11.90
2023-02-06T12:20:49.525Z,10.50
2023-02-06T12:21:49.549Z,9.40
2023-02-06T12:22:49.510Z,10.60
2023-02-06T12:23:49.498Z,9.80
2023-02-06T12:24:49.485Z,8.70
2023-02-06T12:25:49.473Z,9.30
2023-02-06T12:26:49.462Z,9.10
2023-02-06T12:27:49.493Z,8.30
2023-02-06T12:28:49.455Z,9.00
2023-02-06T12:29:49.476Z,9.80
2023-02-06T12:30:49.491Z,8.90
2023-02-06T12:31:49.551Z,9.60
2023-02-06T12:32:49.514Z,9.80
2023-02-06T12:33:49.523Z,9.90
2023-02-06T12:34:49.539Z,9.00
2023-02-06T12:35:49.531Z,8.80
2023-02-06T12:36:49.508Z,8.20
2023-02-06T12:37:49.327Z,8.80
2023-02-06T12:38:49.349Z,8.60
2023-02-06T12:39:49.307Z,8.80
2023-02-06T12:40:49.299Z,7.90
2023-02-06T12:41:49.282Z,8.30
2023-02-06T12:42:49.273Z,8.20
2023-02-06T12:43:49.263Z,8.40
2023-02-06T12:44:49.256Z,8.60
2023-02-06T12:45:49.315Z,7.90
2023-02-06T12:46:49.227Z,8.60
2023-02-06T12:47:49.221Z,7.60
2023-02-06T12:48:49.205Z,9.00
2023-02-06T12:49:49.201Z,8.40
2023-02-06T12:50:49.183Z,9.30
2023-02-06T12:51:49.179Z,8.40
2023-02-06T12:52:49.158Z,8.80
2023-02-06T12:53:49.154Z,8.80
2023-02-06T12:54:49.140Z,7.70
2023-02-06T12:55:49.126Z,8.30
2023-02-06T12:56:49.218Z,7.30
2023-02-06T12:57:49.112Z,7.80
2023-02-06T12:58:49.093Z,7.80
2023-02-06T12:59:57.821Z,6.70
2023-02-06T13:00:49.072Z,7.40
2023-02-06T13:01:49.129Z,7.70
2023-02-06T13:02:49.111Z,7.10
2023-02-06T13:03:49.050Z,6.90
2023-02-06T13:04:49.037Z,8.70
2023-02-06T13:05:49.012Z,7.20
2023-02-06T13:06:49.006Z,7.10